sensor_id;sensor_type;location;lat;lon;timestamp;P1;durP1;ratioP1;P2;durP2;ratioP2
1839;SDS011;920;48.944;9.148;2022-12-07T00:01:35;9.60;;;6.87;;
1839;SDS011;920;48.944;9.148;2022-12-07T00:04:03;10.23;;;6.73;;
1839;SDS011;920;48.944;9.148;2022-12-07T00:06:32;7.87;;;6.50;;
1839;SDS011;920;48.944;9.148;2022-12-07T00:09:05;7.47;;;5.93;;
1839;SDS011;920;48.944;9.148;2022-12-07T00:11:33;8.47;;;6.80;;
1839;SDS011;920;48.944;9.148;2022-12-07T00:14:00;8.00;;;6.40;;
1839;SDS011;920;48.944;9.148;2022-12-07T00:16:28;8.40;;;7.00;;
1839;SDS011;920;48.944;9.148;2022-12-07T00:18:56;8.90;;;6.97;;
1839;SDS011;920;48.944;9.148;2022-12-07T00:21:23;7.13;;;6.00;;
1839;SDS011;920;48.944;9.148;2022-12-07T00:23:54;8.80;;;6.90;;
1839;SDS011;920;48.944;9.148;2022-12-07T00:26:23;7.07;;;6.37;;
1839;SDS011;920;48.944;9.148;2022-12-07T00:28:51;7.17;;;5.90;;
1839;SDS011;920;48.944;9.148;2022-12-07T00:31:24;9.53;;;6.13;;
1839;SDS011;920;48.944;9.148;2022-12-07T00:33:51;7.73;;;6.93;;
1839;SDS011;920;48.944;9.148;2022-12-07T00:36:19;8.60;;;7.23;;
1839;SDS011;920;48.944;9.148;2022-12-07T00:38:46;7.93;;;6.43;;
1839;SDS011;920;48.944;9.148;2022-12-07T00:41:14;8.10;;;6.90;;
1839;SDS011;920;48.944;9.148;2022-12-07T00:43:43;8.40;;;6.87;;
1839;SDS011;920;48.944;9.148;2022-12-07T00:46:11;7.17;;;6.40;;
1839;SDS011;920;48.944;9.148;2022-12-07T00:48:39;8.37;;;7.47;;
1839;SDS011;920;48.944;9.148;2022-12-07T00:51:06;8.53;;;6.83;;
1839;SDS011;920;48.944;9.148;2022-12-07T00:53:33;9.53;;;7.30;;
1839;SDS011;920;48.944;9.148;2022-12-07T00:56:04;10.27;;;7.93;;
1839;SDS011;920;48.944;9.148;2022-12-07T00:58:31;8.43;;;6.83;;
1839;SDS011;920;48.944;9.148;2022-12-07T01:01:00;8.50;;;6.77;;
1839;SDS011;920;48.944;9.148;2022-12-07T01:03:28;9.83;;;7.30;;
1839;SDS011;920;48.944;9.148;2022-12-07T01:05:55;8.03;;;5.73;;
1839;SDS011;920;48.944;9.148;2022-12-07T01:08:22;8.47;;;6.27;;
1839;SDS011;920;48.944;9.148;2022-12-07T01:10:56;7.90;;;6.37;;
1839;SDS011;920;48.944;9.148;2022-12-07T01:13:24;15.90;;;7.10;;
1839;SDS011;920;48.944;9.148;2022-12-07T01:15:51;8.73;;;6.43;;
1839;SDS011;920;48.944;9.148;2022-12-07T01:18:19;7.87;;;6.27;;
1839;SDS011;920;48.944;9.148;2022-12-07T01:20:45;8.50;;;6.03;;
1839;SDS011;920;48.944;9.148;2022-12-07T01:23:23;7.50;;;5.97;;
1839;SDS011;920;48.944;9.148;2022-12-07T01:25:55;9.30;;;6.63;;
1839;SDS011;920;48.944;9.148;2022-12-07T01:28:26;7.00;;;5.80;;
1839;SDS011;920;48.944;9.148;2022-12-07T01:30:55;10.43;;;6.87;;
1839;SDS011;920;48.944;9.148;2022-12-07T01:33:24;8.17;;;5.97;;
1839;SDS011;920;48.944;9.148;2022-12-07T01:36:00;7.60;;;5.90;;
1839;SDS011;920;48.944;9.148;2022-12-07T01:38:29;8.60;;;6.47;;
1839;SDS011;920;48.944;9.148;2022-12-07T01:40:56;7.37;;;6.13;;
1839;SDS011;920;48.944;9.148;2022-12-07T01:43:24;7.50;;;5.93;;
1839;SDS011;920;48.944;9.148;2022-12-07T01:45:52;6.70;;;5.67;;
1839;SDS011;920;48.944;9.148;2022-12-07T01:48:20;7.50;;;6.30;;
1839;SDS011;920;48.944;9.148;2022-12-07T01:50:50;7.20;;;5.70;;
1839;SDS011;920;48.944;9.148;2022-12-07T01:53:20;7.17;;;5.70;;
1839;SDS011;920;48.944;9.148;2022-12-07T01:55:49;7.43;;;5.33;;
1839;SDS011;920;48.944;9.148;2022-12-07T01:58:18;6.03;;;5.30;;
1839;SDS011;920;48.944;9.148;2022-12-07T02:00:48;9.03;;;6.30;;
1839;SDS011;920;48.944;9.148;2022-12-07T02:03:16;6.80;;;5.40;;
1839;SDS011;920;48.944;9.148;2022-12-07T02:05:45;7.50;;;6.27;;
1839;SDS011;920;48.944;9.148;2022-12-07T02:08:15;7.50;;;5.93;;
1839;SDS011;920;48.944;9.148;2022-12-07T02:10:43;7.43;;;6.13;;
1839;SDS011;920;48.944;9.148;2022-12-07T02:13:11;8.10;;;6.13;;
1839;SDS011;920;48.944;9.148;2022-12-07T02:15:57;8.67;;;6.37;;
1839;SDS011;920;48.944;9.148;2022-12-07T02:18:44;8.40;;;6.10;;
1839;SDS011;920;48.944;9.148;2022-12-07T02:21:19;7.07;;;5.80;;
1839;SDS011;920;48.944;9.148;2022-12-07T02:26:53;7.40;;;5.80;;
1839;SDS011;920;48.944;9.148;2022-12-07T02:29:45;8.10;;;6.17;;
1839;SDS011;920;48.944;9.148;2022-12-07T02:32:18;7.63;;;5.87;;
1839;SDS011;920;48.944;9.148;2022-12-07T02:34:48;8.03;;;5.83;;
1839;SDS011;920;48.944;9.148;2022-12-07T02:37:21;8.70;;;6.10;;
1839;SDS011;920;48.944;9.148;2022-12-07T02:39:55;6.27;;;5.40;;
1839;SDS011;920;48.944;9.148;2022-12-07T02:42:26;7.80;;;5.50;;
1839;SDS011;920;48.944;9.148;2022-12-07T02:44:58;6.83;;;5.33;;
1839;SDS011;920;48.944;9.148;2022-12-07T02:47:25;6.30;;;5.10;;
1839;SDS011;920;48.944;9.148;2022-12-07T02:49:54;7.90;;;5.20;;
1839;SDS011;920;48.944;9.148;2022-12-07T02:52:21;6.70;;;5.33;;
1839;SDS011;920;48.944;9.148;2022-12-07T02:54:48;7.90;;;5.43;;
1839;SDS011;920;48.944;9.148;2022-12-07T02:57:18;7.50;;;5.90;;
1839;SDS011;920;48.944;9.148;2022-12-07T02:59:57;6.90;;;5.80;;
1839;SDS011;920;48.944;9.148;2022-12-07T03:02:31;6.80;;;5.67;;
1839;SDS011;920;48.944;9.148;2022-12-07T03:05:13;7.40;;;6.20;;
1839;SDS011;920;48.944;9.148;2022-12-07T03:07:49;8.70;;;5.70;;
1839;SDS011;920;48.944;9.148;2022-12-07T03:10:23;8.47;;;5.90;;
1839;SDS011;920;48.944;9.148;2022-12-07T03:12:53;6.70;;;5.57;;
1839;SDS011;920;48.944;9.148;2022-12-07T03:15:29;7.53;;;5.80;;
1839;SDS011;920;48.944;9.148;2022-12-07T03:17:58;7.90;;;5.80;;
1839;SDS011;920;48.944;9.148;2022-12-07T03:20:27;8.20;;;6.00;;
1839;SDS011;920;48.944;9.148;2022-12-07T03:22:55;8.03;;;6.20;;
1839;SDS011;920;48.944;9.148;2022-12-07T03:25:23;7.07;;;5.67;;
1839;SDS011;920;48.944;9.148;2022-12-07T03:27:53;8.60;;;6.53;;
1839;SDS011;920;48.944;9.148;2022-12-07T03:30:22;8.10;;;6.30;;
1839;SDS011;920;48.944;9.148;2022-12-07T03:32:52;6.83;;;5.77;;
1839;SDS011;920;48.944;9.148;2022-12-07T03:35:22;7.70;;;5.97;;
1839;SDS011;920;48.944;9.148;2022-12-07T03:37:51;7.43;;;5.57;;
1839;SDS011;920;48.944;9.148;2022-12-07T03:40:21;7.70;;;5.77;;
1839;SDS011;920;48.944;9.148;2022-12-07T03:42:50;8.80;;;6.60;;
1839;SDS011;920;48.944;9.148;2022-12-07T03:45:26;9.40;;;6.93;;
1839;SDS011;920;48.944;9.148;2022-12-07T03:48:02;8.50;;;6.87;;
1839;SDS011;920;48.944;9.148;2022-12-07T03:50:34;7.37;;;5.80;;
1839;SDS011;920;48.944;9.148;2022-12-07T03:53:08;6.83;;;5.90;;
1839;SDS011;920;48.944;9.148;2022-12-07T03:55:39;6.90;;;5.70;;
1839;SDS011;920;48.944;9.148;2022-12-07T03:58:09;8.07;;;5.83;;
1839;SDS011;920;48.944;9.148;2022-12-07T04:00:37;7.70;;;6.10;;
1839;SDS011;920;48.944;9.148;2022-12-07T04:03:08;7.60;;;5.97;;
1839;SDS011;920;48.944;9.148;2022-12-07T04:05:35;6.70;;;5.50;;
1839;SDS011;920;48.944;9.148;2022-12-07T04:08:04;8.57;;;6.47;;
1839;SDS011;920;48.944;9.148;2022-12-07T04:10:31;6.90;;;5.80;;
1839;SDS011;920;48.944;9.148;2022-12-07T04:12:57;8.73;;;6.70;;
1839;SDS011;920;48.944;9.148;2022-12-07T04:15:24;7.93;;;6.23;;
1839;SDS011;920;48.944;9.148;2022-12-07T04:17:51;6.23;;;5.40;;
1839;SDS011;920;48.944;9.148;2022-12-07T04:20:19;6.90;;;5.60;;
1839;SDS011;920;48.944;9.148;2022-12-07T04:22:45;7.07;;;5.70;;
1839;SDS011;920;48.944;9.148;2022-12-07T04:25:16;7.63;;;5.50;;
1839;SDS011;920;48.944;9.148;2022-12-07T04:27:42;7.23;;;5.83;;
1839;SDS011;920;48.944;9.148;2022-12-07T04:30:10;8.57;;;6.67;;
1839;SDS011;920;48.944;9.148;2022-12-07T04:32:37;8.47;;;6.80;;
1839;SDS011;920;48.944;9.148;2022-12-07T04:35:04;7.80;;;6.30;;
1839;SDS011;920;48.944;9.148;2022-12-07T04:37:32;9.40;;;7.07;;
1839;SDS011;920;48.944;9.148;2022-12-07T04:39:59;10.70;;;6.93;;
1839;SDS011;920;48.944;9.148;2022-12-07T04:42:26;8.73;;;6.90;;
1839;SDS011;920;48.944;9.148;2022-12-07T04:44:53;8.43;;;6.70;;
1839;SDS011;920;48.944;9.148;2022-12-07T04:47:20;7.97;;;6.50;;
1839;SDS011;920;48.944;9.148;2022-12-07T04:49:47;8.00;;;6.67;;
1839;SDS011;920;48.944;9.148;2022-12-07T04:52:16;8.00;;;6.03;;
1839;SDS011;920;48.944;9.148;2022-12-07T04:54:44;8.23;;;6.23;;
1839;SDS011;920;48.944;9.148;2022-12-07T04:57:11;7.57;;;5.83;;
1839;SDS011;920;48.944;9.148;2022-12-07T04:59:37;7.80;;;6.00;;
1839;SDS011;920;48.944;9.148;2022-12-07T05:02:04;10.27;;;7.13;;
1839;SDS011;920;48.944;9.148;2022-12-07T05:04:33;9.90;;;7.60;;
1839;SDS011;920;48.944;9.148;2022-12-07T05:06:59;10.07;;;6.77;;
1839;SDS011;920;48.944;9.148;2022-12-07T05:09:26;8.30;;;6.40;;
1839;SDS011;920;48.944;9.148;2022-12-07T05:11:57;8.07;;;6.63;;
1839;SDS011;920;48.944;9.148;2022-12-07T05:14:24;8.97;;;6.53;;
1839;SDS011;920;48.944;9.148;2022-12-07T05:16:51;9.60;;;7.10;;
1839;SDS011;920;48.944;9.148;2022-12-07T05:19:20;7.80;;;6.80;;
1839;SDS011;920;48.944;9.148;2022-12-07T05:21:47;9.13;;;6.47;;
1839;SDS011;920;48.944;9.148;2022-12-07T05:24:15;10.13;;;6.60;;
1839;SDS011;920;48.944;9.148;2022-12-07T05:26:44;8.57;;;7.00;;
1839;SDS011;920;48.944;9.148;2022-12-07T05:29:13;7.70;;;5.93;;
1839;SDS011;920;48.944;9.148;2022-12-07T05:31:42;8.33;;;6.70;;
1839;SDS011;920;48.944;9.148;2022-12-07T05:34:09;8.43;;;6.80;;
1839;SDS011;920;48.944;9.148;2022-12-07T05:36:39;9.33;;;6.63;;
1839;SDS011;920;48.944;9.148;2022-12-07T05:39:07;12.83;;;7.30;;
1839;SDS011;920;48.944;9.148;2022-12-07T05:41:34;8.67;;;6.80;;
1839;SDS011;920;48.944;9.148;2022-12-07T05:44:22;9.10;;;6.70;;
1839;SDS011;920;48.944;9.148;2022-12-07T05:46:50;9.47;;;7.47;;
1839;SDS011;920;48.944;9.148;2022-12-07T05:49:16;9.27;;;6.80;;
1839;SDS011;920;48.944;9.148;2022-12-07T05:51:43;9.77;;;6.40;;
1839;SDS011;920;48.944;9.148;2022-12-07T05:54:10;9.00;;;6.63;;
1839;SDS011;920;48.944;9.148;2022-12-07T05:56:36;9.80;;;7.00;;
1839;SDS011;920;48.944;9.148;2022-12-07T05:59:03;8.50;;;6.43;;
1839;SDS011;920;48.944;9.148;2022-12-07T06:01:48;8.87;;;6.30;;
1839;SDS011;920;48.944;9.148;2022-12-07T06:04:15;8.70;;;7.10;;
1839;SDS011;920;48.944;9.148;2022-12-07T06:06:45;11.13;;;7.13;;
1839;SDS011;920;48.944;9.148;2022-12-07T06:09:12;10.13;;;6.73;;
1839;SDS011;920;48.944;9.148;2022-12-07T06:11:38;9.70;;;7.70;;
1839;SDS011;920;48.944;9.148;2022-12-07T06:14:22;7.37;;;5.77;;
1839;SDS011;920;48.944;9.148;2022-12-07T06:16:54;8.80;;;6.97;;
1839;SDS011;920;48.944;9.148;2022-12-07T06:19:21;9.70;;;6.10;;
1839;SDS011;920;48.944;9.148;2022-12-07T06:21:51;9.87;;;7.20;;
1839;SDS011;920;48.944;9.148;2022-12-07T06:24:18;9.03;;;6.60;;
1839;SDS011;920;48.944;9.148;2022-12-07T06:26:46;9.27;;;7.10;;
1839;SDS011;920;48.944;9.148;2022-12-07T06:29:15;10.13;;;7.50;;
1839;SDS011;920;48.944;9.148;2022-12-07T06:31:44;9.73;;;7.20;;
1839;SDS011;920;48.944;9.148;2022-12-07T06:34:13;11.80;;;8.50;;
1839;SDS011;920;48.944;9.148;2022-12-07T06:36:41;9.47;;;7.00;;
1839;SDS011;920;48.944;9.148;2022-12-07T06:39:09;10.73;;;7.47;;
1839;SDS011;920;48.944;9.148;2022-12-07T06:41:36;9.40;;;6.80;;
1839;SDS011;920;48.944;9.148;2022-12-07T06:44:03;10.83;;;7.23;;
1839;SDS011;920;48.944;9.148;2022-12-07T06:46:30;9.70;;;6.90;;
1839;SDS011;920;48.944;9.148;2022-12-07T06:48:58;12.33;;;8.53;;
1839;SDS011;920;48.944;9.148;2022-12-07T06:51:27;9.20;;;7.27;;
1839;SDS011;920;48.944;9.148;2022-12-07T06:53:55;8.70;;;6.10;;
1839;SDS011;920;48.944;9.148;2022-12-07T06:56:29;10.07;;;7.10;;
1839;SDS011;920;48.944;9.148;2022-12-07T06:58:55;8.63;;;5.80;;
1839;SDS011;920;48.944;9.148;2022-12-07T07:01:24;11.37;;;7.53;;
1839;SDS011;920;48.944;9.148;2022-12-07T07:03:51;8.90;;;7.00;;
1839;SDS011;920;48.944;9.148;2022-12-07T07:06:18;25.37;;;15.77;;
1839;SDS011;920;48.944;9.148;2022-12-07T07:08:52;23.43;;;14.20;;
1839;SDS011;920;48.944;9.148;2022-12-07T07:11:21;25.60;;;12.40;;
1839;SDS011;920;48.944;9.148;2022-12-07T07:13:48;20.87;;;11.00;;
1839;SDS011;920;48.944;9.148;2022-12-07T07:16:14;13.10;;;8.80;;
1839;SDS011;920;48.944;9.148;2022-12-07T07:18:43;14.00;;;8.43;;
1839;SDS011;920;48.944;9.148;2022-12-07T07:21:13;9.90;;;7.47;;
1839;SDS011;920;48.944;9.148;2022-12-07T07:23:39;9.50;;;6.87;;
1839;SDS011;920;48.944;9.148;2022-12-07T07:26:07;9.60;;;6.57;;
1839;SDS011;920;48.944;9.148;2022-12-07T07:28:37;10.93;;;7.20;;
1839;SDS011;920;48.944;9.148;2022-12-07T07:31:10;8.40;;;6.67;;
1839;SDS011;920;48.944;9.148;2022-12-07T07:33:36;8.60;;;6.73;;
1839;SDS011;920;48.944;9.148;2022-12-07T07:36:03;7.73;;;6.00;;
1839;SDS011;920;48.944;9.148;2022-12-07T07:38:30;8.63;;;7.20;;
1839;SDS011;920;48.944;9.148;2022-12-07T07:40:57;7.83;;;6.10;;
1839;SDS011;920;48.944;9.148;2022-12-07T07:43:30;8.90;;;6.27;;
1839;SDS011;920;48.944;9.148;2022-12-07T07:45:59;9.33;;;6.67;;
1839;SDS011;920;48.944;9.148;2022-12-07T07:48:29;7.50;;;5.70;;
1839;SDS011;920;48.944;9.148;2022-12-07T07:50:56;9.33;;;6.20;;
1839;SDS011;920;48.944;9.148;2022-12-07T07:53:22;9.93;;;6.97;;
1839;SDS011;920;48.944;9.148;2022-12-07T07:55:52;8.20;;;5.73;;
1839;SDS011;920;48.944;9.148;2022-12-07T07:58:19;10.03;;;6.63;;
1839;SDS011;920;48.944;9.148;2022-12-07T08:00:47;9.00;;;6.33;;
1839;SDS011;920;48.944;9.148;2022-12-07T08:03:17;7.13;;;5.67;;
1839;SDS011;920;48.944;9.148;2022-12-07T08:05:44;7.37;;;5.60;;
1839;SDS011;920;48.944;9.148;2022-12-07T08:08:12;7.57;;;6.30;;
1839;SDS011;920;48.944;9.148;2022-12-07T08:10:39;7.63;;;5.13;;
1839;SDS011;920;48.944;9.148;2022-12-07T08:13:09;7.40;;;5.50;;
1839;SDS011;920;48.944;9.148;2022-12-07T08:15:39;8.47;;;6.70;;
1839;SDS011;920;48.944;9.148;2022-12-07T08:18:08;8.63;;;6.27;;
1839;SDS011;920;48.944;9.148;2022-12-07T08:20:38;8.40;;;6.17;;
1839;SDS011;920;48.944;9.148;2022-12-07T08:23:05;8.07;;;6.43;;
1839;SDS011;920;48.944;9.148;2022-12-07T08:25:33;7.10;;;5.70;;
1839;SDS011;920;48.944;9.148;2022-12-07T08:27:59;7.33;;;6.00;;
1839;SDS011;920;48.944;9.148;2022-12-07T08:30:27;7.37;;;5.10;;
1839;SDS011;920;48.944;9.148;2022-12-07T08:32:56;7.83;;;6.10;;
1839;SDS011;920;48.944;9.148;2022-12-07T08:35:24;8.80;;;5.60;;
1839;SDS011;920;48.944;9.148;2022-12-07T08:37:51;7.40;;;6.00;;
1839;SDS011;920;48.944;9.148;2022-12-07T08:40:18;8.43;;;6.03;;
1839;SDS011;920;48.944;9.148;2022-12-07T08:42:48;6.90;;;5.83;;
1839;SDS011;920;48.944;9.148;2022-12-07T08:45:21;7.70;;;5.87;;
1839;SDS011;920;48.944;9.148;2022-12-07T08:47:48;6.93;;;5.07;;
1839;SDS011;920;48.944;9.148;2022-12-07T08:50:19;7.00;;;4.87;;
1839;SDS011;920;48.944;9.148;2022-12-07T08:52:49;6.73;;;5.43;;
1839;SDS011;920;48.944;9.148;2022-12-07T08:55:17;7.60;;;4.97;;
1839;SDS011;920;48.944;9.148;2022-12-07T08:57:45;6.40;;;4.57;;
1839;SDS011;920;48.944;9.148;2022-12-07T09:00:12;5.97;;;5.00;;
1839;SDS011;920;48.944;9.148;2022-12-07T09:02:41;6.20;;;4.97;;
1839;SDS011;920;48.944;9.148;2022-12-07T09:05:07;7.00;;;5.23;;
1839;SDS011;920;48.944;9.148;2022-12-07T09:07:39;5.20;;;4.37;;
1839;SDS011;920;48.944;9.148;2022-12-07T09:10:08;5.90;;;4.70;;
1839;SDS011;920;48.944;9.148;2022-12-07T09:12:35;5.80;;;4.20;;
1839;SDS011;920;48.944;9.148;2022-12-07T09:15:02;4.83;;;3.83;;
1839;SDS011;920;48.944;9.148;2022-12-07T09:17:31;4.77;;;3.90;;
1839;SDS011;920;48.944;9.148;2022-12-07T09:19:58;6.87;;;4.67;;
1839;SDS011;920;48.944;9.148;2022-12-07T09:22:27;5.50;;;4.13;;
1839;SDS011;920;48.944;9.148;2022-12-07T09:24:55;5.33;;;4.13;;
1839;SDS011;920;48.944;9.148;2022-12-07T09:27:24;5.53;;;4.33;;
1839;SDS011;920;48.944;9.148;2022-12-07T09:29:51;9.03;;;4.80;;
1839;SDS011;920;48.944;9.148;2022-12-07T09:32:18;6.40;;;4.77;;
1839;SDS011;920;48.944;9.148;2022-12-07T09:34:48;5.93;;;4.63;;
1839;SDS011;920;48.944;9.148;2022-12-07T09:37:16;6.20;;;4.70;;
1839;SDS011;920;48.944;9.148;2022-12-07T09:39:45;7.57;;;5.37;;
1839;SDS011;920;48.944;9.148;2022-12-07T09:42:15;7.27;;;5.20;;
1839;SDS011;920;48.944;9.148;2022-12-07T09:44:55;7.33;;;5.60;;
1839;SDS011;920;48.944;9.148;2022-12-07T09:47:23;7.07;;;5.13;;
1839;SDS011;920;48.944;9.148;2022-12-07T09:49:50;5.50;;;4.43;;
1839;SDS011;920;48.944;9.148;2022-12-07T09:52:17;7.23;;;5.70;;
1839;SDS011;920;48.944;9.148;2022-12-07T09:54:48;5.90;;;4.87;;
1839;SDS011;920;48.944;9.148;2022-12-07T09:57:20;5.80;;;4.90;;
1839;SDS011;920;48.944;9.148;2022-12-07T09:59:51;6.00;;;4.93;;
1839;SDS011;920;48.944;9.148;2022-12-07T10:02:34;6.60;;;4.93;;
1839;SDS011;920;48.944;9.148;2022-12-07T10:05:05;7.27;;;4.73;;
1839;SDS011;920;48.944;9.148;2022-12-07T10:07:37;7.23;;;4.73;;
1839;SDS011;920;48.944;9.148;2022-12-07T10:10:04;6.40;;;4.63;;
1839;SDS011;920;48.944;9.148;2022-12-07T10:12:44;6.17;;;3.80;;
1839;SDS011;920;48.944;9.148;2022-12-07T10:15:22;4.77;;;3.37;;
1839;SDS011;920;48.944;9.148;2022-12-07T10:17:52;4.90;;;3.27;;
1839;SDS011;920;48.944;9.148;2022-12-07T10:20:20;6.33;;;3.67;;
1839;SDS011;920;48.944;9.148;2022-12-07T10:25:40;5.93;;;4.10;;
1839;SDS011;920;48.944;9.148;2022-12-07T10:28:12;5.17;;;4.13;;
1839;SDS011;920;48.944;9.148;2022-12-07T10:30:48;5.03;;;4.00;;
1839;SDS011;920;48.944;9.148;2022-12-07T10:33:33;5.60;;;4.60;;
1839;SDS011;920;48.944;9.148;2022-12-07T10:36:19;5.70;;;4.30;;
1839;SDS011;920;48.944;9.148;2022-12-07T10:38:51;6.80;;;4.43;;
1839;SDS011;920;48.944;9.148;2022-12-07T10:41:19;5.90;;;4.47;;
1839;SDS011;920;48.944;9.148;2022-12-07T10:43:47;6.40;;;4.60;;
1839;SDS011;920;48.944;9.148;2022-12-07T10:46:24;6.50;;;4.70;;
1839;SDS011;920;48.944;9.148;2022-12-07T10:49:07;7.17;;;4.67;;
1839;SDS011;920;48.944;9.148;2022-12-07T10:52:07;8.20;;;5.27;;
1839;SDS011;920;48.944;9.148;2022-12-07T10:54:40;5.77;;;4.63;;
1839;SDS011;920;48.944;9.148;2022-12-07T10:57:20;7.40;;;5.00;;
1839;SDS011;920;48.944;9.148;2022-12-07T11:00:04;5.97;;;4.97;;
1839;SDS011;920;48.944;9.148;2022-12-07T11:05:38;7.20;;;4.70;;
1839;SDS011;920;48.944;9.148;2022-12-07T11:08:09;6.70;;;4.97;;
1839;SDS011;920;48.944;9.148;2022-12-07T11:10:41;6.67;;;5.10;;
1839;SDS011;920;48.944;9.148;2022-12-07T11:13:15;7.60;;;5.50;;
1839;SDS011;920;48.944;9.148;2022-12-07T11:18:51;6.80;;;5.30;;
1839;SDS011;920;48.944;9.148;2022-12-07T11:21:24;6.73;;;5.10;;
1839;SDS011;920;48.944;9.148;2022-12-07T11:23:55;7.63;;;5.67;;
1839;SDS011;920;48.944;9.148;2022-12-07T11:26:32;7.30;;;5.50;;
1839;SDS011;920;48.944;9.148;2022-12-07T11:29:11;6.70;;;5.43;;
1839;SDS011;920;48.944;9.148;2022-12-07T11:31:54;7.47;;;5.70;;
1839;SDS011;920;48.944;9.148;2022-12-07T11:34:30;8.40;;;6.00;;
1839;SDS011;920;48.944;9.148;2022-12-07T11:37:02;8.10;;;6.07;;
1839;SDS011;920;48.944;9.148;2022-12-07T11:39:30;7.73;;;6.00;;
1839;SDS011;920;48.944;9.148;2022-12-07T11:42:00;8.33;;;6.23;;
1839;SDS011;920;48.944;9.148;2022-12-07T11:44:31;8.23;;;6.50;;
1839;SDS011;920;48.944;9.148;2022-12-07T11:47:05;7.40;;;5.70;;
1839;SDS011;920;48.944;9.148;2022-12-07T11:49:39;7.07;;;6.13;;
1839;SDS011;920;48.944;9.148;2022-12-07T11:52:11;8.53;;;6.57;;
1839;SDS011;920;48.944;9.148;2022-12-07T11:54:45;8.13;;;6.43;;
1839;SDS011;920;48.944;9.148;2022-12-07T11:57:17;9.00;;;6.00;;
1839;SDS011;920;48.944;9.148;2022-12-07T11:59:47;8.20;;;6.50;;
1839;SDS011;920;48.944;9.148;2022-12-07T12:02:16;9.27;;;7.60;;
1839;SDS011;920;48.944;9.148;2022-12-07T12:04:51;11.20;;;8.27;;
1839;SDS011;920;48.944;9.148;2022-12-07T12:07:21;8.47;;;6.73;;
1839;SDS011;920;48.944;9.148;2022-12-07T12:09:49;8.60;;;6.97;;
1839;SDS011;920;48.944;9.148;2022-12-07T12:12:21;9.00;;;7.50;;
1839;SDS011;920;48.944;9.148;2022-12-07T12:15:01;8.30;;;6.80;;
1839;SDS011;920;48.944;9.148;2022-12-07T12:20:37;9.90;;;7.60;;
1839;SDS011;920;48.944;9.148;2022-12-07T12:23:10;9.30;;;7.27;;
1839;SDS011;920;48.944;9.148;2022-12-07T12:25:40;7.83;;;6.23;;
1839;SDS011;920;48.944;9.148;2022-12-07T12:28:18;8.60;;;6.97;;
1839;SDS011;920;48.944;9.148;2022-12-07T12:31:09;8.63;;;6.73;;
1839;SDS011;920;48.944;9.148;2022-12-07T12:33:38;8.50;;;7.17;;
1839;SDS011;920;48.944;9.148;2022-12-07T12:36:22;9.07;;;6.70;;
1839;SDS011;920;48.944;9.148;2022-12-07T12:38:51;8.70;;;6.13;;
1839;SDS011;920;48.944;9.148;2022-12-07T12:41:55;9.93;;;6.57;;
1839;SDS011;920;48.944;9.148;2022-12-07T12:44:38;8.20;;;6.30;;
1839;SDS011;920;48.944;9.148;2022-12-07T12:50:15;9.10;;;7.10;;
1839;SDS011;920;48.944;9.148;2022-12-07T12:52:55;11.57;;;7.00;;
1839;SDS011;920;48.944;9.148;2022-12-07T12:55:29;11.00;;;7.47;;
1839;SDS011;920;48.944;9.148;2022-12-07T12:58:32;8.83;;;6.80;;
1839;SDS011;920;48.944;9.148;2022-12-07T13:04:27;9.83;;;7.30;;
1839;SDS011;920;48.944;9.148;2022-12-07T13:07:13;10.83;;;7.60;;
1839;SDS011;920;48.944;9.148;2022-12-07T13:09:43;10.00;;;7.67;;
1839;SDS011;920;48.944;9.148;2022-12-07T13:12:12;8.40;;;6.53;;
1839;SDS011;920;48.944;9.148;2022-12-07T13:14:42;9.53;;;7.63;;
1839;SDS011;920;48.944;9.148;2022-12-07T13:20:41;13.87;;;8.20;;
1839;SDS011;920;48.944;9.148;2022-12-07T13:23:13;10.70;;;8.00;;
1839;SDS011;920;48.944;9.148;2022-12-07T13:25:44;13.97;;;8.20;;
1839;SDS011;920;48.944;9.148;2022-12-07T13:28:16;11.67;;;8.10;;
1839;SDS011;920;48.944;9.148;2022-12-07T13:30:54;12.63;;;8.50;;
1839;SDS011;920;48.944;9.148;2022-12-07T13:33:27;11.17;;;8.30;;
1839;SDS011;920;48.944;9.148;2022-12-07T13:35:55;10.83;;;8.37;;
1839;SDS011;920;48.944;9.148;2022-12-07T13:38:26;11.43;;;8.50;;
1839;SDS011;920;48.944;9.148;2022-12-07T13:41:11;11.27;;;7.40;;
1839;SDS011;920;48.944;9.148;2022-12-07T13:43:43;10.57;;;8.87;;
1839;SDS011;920;48.944;9.148;2022-12-07T13:46:11;9.83;;;8.13;;
1839;SDS011;920;48.944;9.148;2022-12-07T13:48:43;9.90;;;7.57;;
1839;SDS011;920;48.944;9.148;2022-12-07T13:51:16;10.80;;;7.90;;
1839;SDS011;920;48.944;9.148;2022-12-07T13:53:49;11.57;;;8.60;;
1839;SDS011;920;48.944;9.148;2022-12-07T13:56:27;13.53;;;8.47;;
1839;SDS011;920;48.944;9.148;2022-12-07T13:58:58;11.00;;;8.43;;
1839;SDS011;920;48.944;9.148;2022-12-07T14:01:25;10.43;;;7.93;;
1839;SDS011;920;48.944;9.148;2022-12-07T14:03:52;10.30;;;7.63;;
1839;SDS011;920;48.944;9.148;2022-12-07T14:06:25;10.67;;;7.70;;
1839;SDS011;920;48.944;9.148;2022-12-07T14:09:07;11.10;;;8.10;;
1839;SDS011;920;48.944;9.148;2022-12-07T14:11:36;9.30;;;7.20;;
1839;SDS011;920;48.944;9.148;2022-12-07T14:14:05;11.60;;;8.37;;
1839;SDS011;920;48.944;9.148;2022-12-07T14:16:33;9.33;;;7.30;;
1839;SDS011;920;48.944;9.148;2022-12-07T14:19:01;10.93;;;7.80;;
1839;SDS011;920;48.944;9.148;2022-12-07T14:21:29;10.30;;;8.00;;
1839;SDS011;920;48.944;9.148;2022-12-07T14:24:08;11.40;;;8.20;;
1839;SDS011;920;48.944;9.148;2022-12-07T14:26:45;10.10;;;7.70;;
1839;SDS011;920;48.944;9.148;2022-12-07T14:29:21;13.40;;;10.40;;
1839;SDS011;920;48.944;9.148;2022-12-07T14:31:54;11.87;;;9.00;;
1839;SDS011;920;48.944;9.148;2022-12-07T14:34:22;10.80;;;7.90;;
1839;SDS011;920;48.944;9.148;2022-12-07T14:36:49;10.30;;;8.50;;
1839;SDS011;920;48.944;9.148;2022-12-07T14:39:16;10.30;;;8.30;;
1839;SDS011;920;48.944;9.148;2022-12-07T14:41:42;11.57;;;8.80;;
1839;SDS011;920;48.944;9.148;2022-12-07T14:44:18;10.90;;;8.37;;
1839;SDS011;920;48.944;9.148;2022-12-07T14:46:46;11.10;;;8.10;;
1839;SDS011;920;48.944;9.148;2022-12-07T14:49:13;11.07;;;8.60;;
1839;SDS011;920;48.944;9.148;2022-12-07T14:51:40;11.67;;;8.77;;
1839;SDS011;920;48.944;9.148;2022-12-07T14:54:13;11.07;;;8.57;;
1839;SDS011;920;48.944;9.148;2022-12-07T14:56:42;11.20;;;8.20;;
1839;SDS011;920;48.944;9.148;2022-12-07T14:59:12;11.10;;;8.67;;
1839;SDS011;920;48.944;9.148;2022-12-07T15:01:40;10.97;;;8.47;;
1839;SDS011;920;48.944;9.148;2022-12-07T15:04:10;12.67;;;8.83;;
1839;SDS011;920;48.944;9.148;2022-12-07T15:06:40;11.97;;;8.93;;
1839;SDS011;920;48.944;9.148;2022-12-07T15:09:09;12.70;;;9.30;;
1839;SDS011;920;48.944;9.148;2022-12-07T15:11:38;12.93;;;9.57;;
1839;SDS011;920;48.944;9.148;2022-12-07T15:14:04;15.47;;;10.60;;
1839;SDS011;920;48.944;9.148;2022-12-07T15:16:36;13.10;;;9.33;;
1839;SDS011;920;48.944;9.148;2022-12-07T15:19:16;12.80;;;9.30;;
1839;SDS011;920;48.944;9.148;2022-12-07T15:21:50;19.50;;;11.30;;
1839;SDS011;920;48.944;9.148;2022-12-07T15:24:17;14.10;;;9.70;;
1839;SDS011;920;48.944;9.148;2022-12-07T15:26:45;15.13;;;10.30;;
1839;SDS011;920;48.944;9.148;2022-12-07T15:29:13;13.97;;;10.10;;
1839;SDS011;920;48.944;9.148;2022-12-07T15:31:41;12.80;;;9.57;;
1839;SDS011;920;48.944;9.148;2022-12-07T15:34:12;13.90;;;9.80;;
1839;SDS011;920;48.944;9.148;2022-12-07T15:36:39;14.27;;;10.83;;
1839;SDS011;920;48.944;9.148;2022-12-07T15:39:05;16.60;;;10.70;;
1839;SDS011;920;48.944;9.148;2022-12-07T15:41:36;14.50;;;10.57;;
1839;SDS011;920;48.944;9.148;2022-12-07T15:44:02;13.73;;;10.57;;
1839;SDS011;920;48.944;9.148;2022-12-07T15:46:47;12.57;;;9.53;;
1839;SDS011;920;48.944;9.148;2022-12-07T15:49:16;12.70;;;9.97;;
1839;SDS011;920;48.944;9.148;2022-12-07T15:51:51;13.97;;;10.03;;
1839;SDS011;920;48.944;9.148;2022-12-07T15:54:19;14.10;;;10.00;;
1839;SDS011;920;48.944;9.148;2022-12-07T15:56:52;15.00;;;11.20;;
1839;SDS011;920;48.944;9.148;2022-12-07T15:59:19;12.30;;;8.80;;
1839;SDS011;920;48.944;9.148;2022-12-07T16:01:45;11.17;;;8.90;;
1839;SDS011;920;48.944;9.148;2022-12-07T16:04:12;14.23;;;10.43;;
1839;SDS011;920;48.944;9.148;2022-12-07T16:06:43;15.50;;;11.00;;
1839;SDS011;920;48.944;9.148;2022-12-07T16:09:10;12.47;;;9.37;;
1839;SDS011;920;48.944;9.148;2022-12-07T16:11:37;14.20;;;10.40;;